createdAt,value
2023-02-18T00:01:17.911Z,102264.41
2023-02-18T00:03:44.882Z,102266.09
2023-02-18T00:06:19.859Z,102272.38
2023-02-18T00:08:46.626Z,102265.97
2023-02-18T00:11:13.439Z,102267.72
2023-02-18T00:13:40.037Z,102264.06
2023-02-18T00:16:10.895Z,102261.38
2023-02-18T00:18:38.745Z,102273.13
2023-02-18T00:21:06.676Z,102264.06
2023-02-18T00:23:33.731Z,102257.88
2023-02-18T00:26:21.705Z,102251.59
2023-02-18T00:28:49.369Z,102254.38
2023-02-18T00:31:19.110Z,102261.59
2023-02-18T00:33:45.845Z,102261.69
2023-02-18T00:36:14.941Z,102246.44
2023-02-18T00:38:50.034Z,102247.31
2023-02-18T00:41:18.374Z,102256.34
2023-02-18T00:43:44.918Z,102246.59
2023-02-18T00:46:12.613Z,102248.41
2023-02-18T00:48:39.717Z,102236.78
2023-02-18T00:51:07.377Z,102246.66
2023-02-18T00:53:35.055Z,102240.47
2023-02-18T00:56:01.708Z,102237.84
2023-02-18T00:58:28.536Z,102238.75
2023-02-18T01:00:55.662Z,102238.00
2023-02-18T01:03:23.725Z,102234.50
2023-02-18T01:05:50.968Z,102232.81
2023-02-18T01:08:19.257Z,102229.44
2023-02-18T01:10:47.948Z,102230.28
2023-02-18T01:13:16.126Z,102224.97
2023-02-18T01:15:43.474Z,102239.47
2023-02-18T01:18:10.562Z,102227.06
2023-02-18T01:20:38.738Z,102230.81
2023-02-18T01:23:07.646Z,102233.69
2023-02-18T01:25:34.837Z,102232.09
2023-02-18T01:28:02.117Z,102232.28
2023-02-18T01:30:29.008Z,102219.88
2023-02-18T01:32:58.613Z,102228.03
2023-02-18T01:35:26.068Z,102230.94
2023-02-18T01:37:54.768Z,102222.19
2023-02-18T01:40:24.253Z,102212.41
2023-02-18T01:42:50.701Z,102210.75
2023-02-18T01:45:35.693Z,102209.13
2023-02-18T01:48:06.958Z,102202.94
2023-02-18T01:50:36.935Z,102198.44
2023-02-18T01:53:04.041Z,102203.75
2023-02-18T01:55:31.763Z,102192.09
2023-02-18T01:57:58.292Z,102186.72
2023-02-18T02:00:24.833Z,102193.06
2023-02-18T02:02:53.674Z,102193.22
2023-02-18T02:05:21.686Z,102199.31
2023-02-18T02:07:53.517Z,102192.91
2023-02-18T02:10:20.613Z,102188.50
2023-02-18T02:13:05.472Z,102181.25
2023-02-18T02:15:34.988Z,102174.00
2023-02-18T02:18:18.387Z,102165.00
2023-02-18T02:21:22.920Z,102160.53
2023-02-18T02:24:01.633Z,102156.03
2023-02-18T02:26:54.760Z,102149.78
2023-02-18T02:29:42.305Z,102145.19
2023-02-18T02:32:15.788Z,102122.78
2023-02-18T02:34:51.692Z,102120.97
2023-02-18T02:37:44.223Z,102115.50
2023-02-18T02:40:29.380Z,102102.94
2023-02-18T02:43:08.982Z,102087.69
2023-02-18T02:46:04.789Z,102080.50
2023-02-18T02:49:09.860Z,102068.78
2023-02-18T02:51:40.514Z,102066.88
2023-02-18T02:54:18.771Z,102065.09
2023-02-18T02:56:45.511Z,102064.03
2023-02-18T02:59:22.717Z,102061.31
2023-02-18T03:02:08.012Z,102059.38
2023-02-18T03:04:57.404Z,102051.22
2023-02-18T03:07:48.212Z,102037.72
2023-02-18T03:10:22.427Z,102032.19
2023-02-18T03:13:16.271Z,102035.66
2023-02-18T03:15:56.997Z,102030.22
2023-02-18T03:18:38.710Z,102026.38
2023-02-18T03:21:12.003Z,102025.38
2023-02-18T03:23:49.439Z,102023.47
2023-02-18T03:26:20.870Z,102013.41
2023-02-18T03:28:52.962Z,102018.72
2023-02-18T03:31:24.643Z,102011.34
2023-02-18T03:34:04.347Z,102012.16
2023-02-18T03:36:34.395Z,102000.38
2023-02-18T03:39:18.820Z,101979.59
2023-02-18T03:41:47.521Z,101979.59
2023-02-18T03:44:14.397Z,101976.84
2023-02-18T03:46:45.862Z,101969.59
2023-02-18T03:49:14.396Z,101957.97
2023-02-18T03:51:42.066Z,101959.78
2023-02-18T03:54:09.535Z,101952.50
2023-02-18T03:56:37.101Z,101951.53
2023-02-18T03:59:04.387Z,101953.28
2023-02-18T04:01:31.419Z,101943.47
2023-02-18T04:03:58.058Z,101945.13
2023-02-18T04:06:24.950Z,101939.66
2023-02-18T04:08:51.453Z,101926.19
2023-02-18T04:11:18.242Z,101927.94
2023-02-18T04:13:44.717Z,101927.94
2023-02-18T04:16:11.220Z,101936.00
2023-02-18T04:18:37.702Z,101923.34
2023-02-18T04:21:04.425Z,101913.34
2023-02-18T04:23:30.956Z,101913.34
2023-02-18T04:25:57.863Z,101910.56
2023-02-18T04:28:24.361Z,101902.41
2023-02-18T04:30:51.015Z,101901.44
2023-02-18T04:33:17.497Z,101905.00
2023-02-18T04:35:43.966Z,101904.94
2023-02-18T04:38:11.459Z,101907.44
2023-02-18T04:40:37.889Z,101896.66
2023-02-18T04:43:04.518Z,101900.25
2023-02-18T04:45:30.977Z,101888.50
2023-02-18T04:47:57.586Z,101875.91
2023-02-18T04:50:24.132Z,101876.88
2023-02-18T04:52:50.768Z,101873.31
2023-02-18T04:55:17.289Z,101874.19
2023-02-18T04:57:43.749Z,101868.88
2023-02-18T05:00:15.060Z,101863.53
2023-02-18T05:02:41.511Z,101846.53
2023-02-18T05:05:08.217Z,101860.09
2023-02-18T05:07:34.770Z,101867.28
2023-02-18T05:10:01.292Z,101871.00
2023-02-18T05:12:27.807Z,101856.69
2023-02-18T05:14:54.310Z,101860.22
2023-02-18T05:17:20.890Z,101857.72
2023-02-18T05:19:47.422Z,101858.59
2023-02-18T05:22:13.839Z,101869.34
2023-02-18T05:24:40.320Z,101857.72
2023-02-18T05:27:06.756Z,101860.47
2023-02-18T05:29:33.179Z,101850.69
2023-02-18T05:31:59.822Z,101847.97
2023-02-18T05:34:26.256Z,101842.59
2023-02-18T05:36:53.023Z,101847.97
2023-02-18T05:39:19.486Z,101848.91
2023-02-18T05:41:45.894Z,101832.75
2023-02-18T05:44:30.373Z,101836.31
2023-02-18T05:47:22.921Z,101823.81
2023-02-18T05:49:49.281Z,101824.66
2023-02-18T05:52:15.755Z,101823.72
2023-02-18T05:54:42.633Z,101818.34
2023-02-18T05:57:09.118Z,101824.56
2023-02-18T05:59:35.703Z,101827.22
2023-02-18T06:02:02.200Z,101810.19
2023-02-18T06:04:28.768Z,101807.38
2023-02-18T06:06:55.248Z,101824.44
2023-02-18T06:09:21.864Z,101824.44
2023-02-18T06:11:48.438Z,101821.75
2023-02-18T06:14:15.091Z,101828.84
2023-02-18T06:16:41.649Z,101823.47
2023-02-18T06:19:08.280Z,101827.97
2023-02-18T06:21:34.855Z,101826.06
2023-02-18T06:24:01.308Z,101815.31
2023-02-18T06:26:27.730Z,101825.16
2023-02-18T06:28:54.271Z,101826.00
2023-02-18T06:31:20.825Z,101818.69
2023-02-18T06:33:47.372Z,101819.56
2023-02-18T06:36:14.483Z,101829.38
2023-02-18T06:38:43.683Z,101821.31
2023-02-18T06:41:11.114Z,101814.97
2023-02-18T06:43:37.806Z,101828.47
2023-02-18T06:46:04.876Z,101834.69
2023-02-18T06:48:31.510Z,101833.84
2023-02-18T06:50:58.301Z,101827.56
2023-02-18T06:53:27.873Z,101825.81
2023-02-18T06:55:54.308Z,101834.88
2023-02-18T06:58:20.788Z,101826.88
2023-02-18T07:00:47.509Z,101833.22
2023-02-18T07:03:15.039Z,101828.78
2023-02-18T07:05:42.130Z,101819.06
2023-02-18T07:08:09.168Z,101813.66
2023-02-18T07:10:35.648Z,101812.88
2023-02-18T07:13:02.120Z,101813.81
2023-02-18T07:15:28.704Z,101809.28
2023-02-18T07:17:55.487Z,101818.25
2023-02-18T07:20:24.169Z,101807.47
2023-02-18T07:22:50.951Z,101803.03
2023-02-18T07:25:18.063Z,101822.69
2023-02-18T07:27:44.549Z,101820.94
2023-02-18T07:30:11.569Z,101816.50
2023-02-18T07:32:38.033Z,101824.56
2023-02-18T07:35:06.192Z,101815.75
2023-02-18T07:37:33.300Z,101816.59
2023-02-18T07:39:59.773Z,101813.13
2023-02-18T07:42:26.237Z,101802.34
2023-02-18T07:44:52.625Z,101799.56
2023-02-18T07:47:19.702Z,101787.91
2023-02-18T07:49:46.671Z,101786.94
2023-02-18T07:52:14.346Z,101796.78
2023-02-18T07:54:40.897Z,101820.16
2023-02-18T07:57:07.516Z,101802.25
2023-02-18T07:59:34.064Z,101803.09
2023-02-18T08:02:00.617Z,101809.56
2023-02-18T08:04:27.325Z,101813.19
2023-02-18T08:06:53.853Z,101819.63
2023-02-18T08:09:20.408Z,101824.94
2023-02-18T08:11:46.817Z,101821.25
2023-02-18T08:14:13.205Z,101816.84
2023-02-18T08:16:40.151Z,101822.31
2023-02-18T08:19:07.941Z,101818.81
2023-02-18T08:21:34.732Z,101827.78
2023-02-18T08:24:01.934Z,101827.78
2023-02-18T08:26:28.835Z,101826.81
2023-02-18T08:28:55.392Z,101828.59
2023-02-18T08:31:26.477Z,101839.50
2023-02-18T08:33:54.963Z,101831.50
2023-02-18T08:36:22.191Z,101846.03
2023-02-18T08:38:49.153Z,101848.88
2023-02-18T08:41:16.422Z,101848.19
2023-02-18T08:43:43.161Z,101845.66
2023-02-18T08:46:11.398Z,101842.16
2023-02-18T08:48:43.209Z,101837.72
2023-02-18T08:51:18.391Z,101847.63
2023-02-18T08:53:47.120Z,101832.50
2023-02-18T08:56:15.032Z,101833.53
2023-02-18T08:58:42.167Z,101836.94
2023-02-18T09:01:11.071Z,101851.34
2023-02-18T09:03:37.607Z,101842.56
2023-02-18T09:06:04.601Z,101847.31
2023-02-18T09:08:31.186Z,101852.63
2023-02-18T09:10:59.083Z,101849.25
2023-02-18T09:13:26.137Z,101857.16
2023-02-18T09:16:00.354Z,101855.94
2023-02-18T09:18:27.105Z,101851.44
2023-02-18T09:20:57.706Z,101850.25
2023-02-18T09:23:25.963Z,101847.47
2023-02-18T09:25:53.287Z,101848.19
2023-02-18T09:28:19.842Z,101844.69
2023-02-18T09:30:46.456Z,101843.72
2023-02-18T09:33:13.281Z,101842.97
2023-02-18T09:35:41.352Z,101854.59
2023-02-18T09:38:10.217Z,101841.81
2023-02-18T09:40:42.156Z,101858.06
2023-02-18T09:43:18.646Z,101866.94
2023-02-18T09:45:45.411Z,101860.50
2023-02-18T09:48:11.896Z,101867.75
2023-02-18T09:50:38.354Z,101871.06
2023-02-18T09:53:05.653Z,101875.56
2023-02-18T09:55:39.299Z,101874.59
2023-02-18T09:58:13.192Z,101884.44
2023-02-18T10:00:43.392Z,101884.38
2023-02-18T10:03:22.078Z,101868.91
2023-02-18T10:06:03.282Z,101876.91
2023-02-18T10:08:36.387Z,101883.84
2023-02-18T10:11:03.759Z,101885.44
2023-02-18T10:13:33.867Z,101885.19
2023-02-18T10:16:02.084Z,101895.47
2023-02-18T10:18:32.584Z,101887.75
2023-02-18T10:21:10.435Z,101881.19
2023-02-18T10:23:40.928Z,101885.53
2023-02-18T10:26:14.564Z,101893.72
2023-02-18T10:28:41.126Z,101889.03
2023-02-18T10:31:10.994Z,101895.31
2023-02-18T10:33:52.066Z,101893.44
2023-02-18T10:36:46.525Z,101893.97
2023-02-18T10:39:32.930Z,101894.44
2023-02-18T10:42:18.242Z,101893.78
2023-02-18T10:45:06.119Z,101907.88
2023-02-18T10:47:57.984Z,101904.22
2023-02-18T10:50:28.318Z,101903.22
2023-02-18T10:52:59.565Z,101904.13
2023-02-18T10:55:44.738Z,101908.94
2023-02-18T10:58:36.088Z,101904.66
2023-02-18T11:01:13.177Z,101902.69
2023-02-18T11:03:45.486Z,101894.19
2023-02-18T11:06:32.432Z,101899.19
2023-02-18T11:09:00.949Z,101893.00
2023-02-18T11:11:30.605Z,101906.16
2023-02-18T11:14:00.882Z,101897.34
2023-02-18T11:16:40.873Z,101904.88
2023-02-18T11:19:36.413Z,101893.66
2023-02-18T11:22:18.930Z,101900.88
2023-02-18T11:24:48.509Z,101889.50
2023-02-18T11:27:58.406Z,101891.13
2023-02-18T11:30:30.974Z,101899.72
2023-02-18T11:33:03.063Z,101906.94
2023-02-18T11:35:32.577Z,101902.97
2023-02-18T11:38:02.155Z,101909.78
2023-02-18T11:40:34.397Z,101909.88
2023-02-18T11:43:06.775Z,101903.78
2023-02-18T11:45:35.084Z,101917.03
2023-02-18T11:48:08.334Z,101920.47
2023-02-18T11:50:35.747Z,101891.97
2023-02-18T11:53:25.673Z,101906.88
2023-02-18T11:55:57.890Z,101901.88
2023-02-18T11:58:25.098Z,101895.59
2023-02-18T12:00:55.899Z,101896.81
2023-02-18T12:03:44.551Z,101906.06
2023-02-18T12:06:48.282Z,101900.19
2023-02-18T12:09:20.582Z,101904.72
2023-02-18T12:11:59.238Z,101897.88
2023-02-18T12:14:27.145Z,101899.00
2023-02-18T12:17:21.181Z,101892.06
2023-02-18T12:20:10.834Z,101906.78
2023-02-18T12:22:45.018Z,101882.19
2023-02-18T12:25:36.435Z,101887.31
2023-02-18T12:28:17.580Z,101899.09
2023-02-18T12:31:21.765Z,101888.91
2023-02-18T12:34:10.145Z,101891.91
2023-02-18T12:36:54.690Z,101895.00
2023-02-18T12:39:37.032Z,101895.59
2023-02-18T12:42:12.289Z,101886.25
2023-02-18T12:44:52.178Z,101901.16
2023-02-18T12:47:52.628Z,101897.97
2023-02-18T12:50:49.314Z,101896.38
2023-02-18T12:53:50.229Z,101903.69
2023-02-18T12:56:43.154Z,101906.72
2023-02-18T12:59:37.565Z,101912.53
2023-02-18T13:02:42.785Z,101899.72
2023-02-18T13:05:12.201Z,101900.66
2023-02-18T13:07:50.537Z,101909.31
2023-02-18T13:10:29.427Z,101910.66
2023-02-18T13:13:05.342Z,101916.53
2023-02-18T13:15:51.131Z,101913.34
2023-02-18T13:18:38.504Z,101905.03
2023-02-18T13:21:13.017Z,101903.66
2023-02-18T13:24:10.135Z,101899.41
2023-02-18T13:26:37.805Z,101923.56
2023-02-18T13:29:06.943Z,101914.47
2023-02-18T13:31:51.118Z,101914.88
2023-02-18T13:34:27.059Z,101904.84
2023-02-18T13:37:05.792Z,101917.81
2023-02-18T13:39:32.933Z,101918.66
2023-02-18T13:42:17.500Z,101904.19
2023-02-18T13:44:56.287Z,101905.81
2023-02-18T13:47:42.746Z,101904.19
2023-02-18T13:50:25.694Z,101906.31
2023-02-18T13:53:20.868Z,101908.13
2023-02-18T13:56:14.838Z,101917.81
2023-02-18T13:58:45.648Z,101916.03
2023-02-18T14:01:12.123Z,101926.94
2023-02-18T14:03:44.960Z,101937.75
2023-02-18T14:06:23.298Z,101921.94
2023-02-18T14:08:51.543Z,101938.38
2023-02-18T14:11:53.532Z,101911.66
2023-02-18T14:14:26.150Z,101930.41
2023-02-18T14:17:20.426Z,101921.91
2023-02-18T14:19:59.522Z,101939.38
2023-02-18T14:22:33.302Z,101930.13
2023-02-18T14:25:32.875Z,101933.09
2023-02-18T14:28:04.248Z,101932.22
2023-02-18T14:30:41.857Z,101931.38
2023-02-18T14:33:16.025Z,101937.06
2023-02-18T14:35:53.600Z,101936.75
2023-02-18T14:38:39.780Z,101927.56
2023-02-18T14:41:25.580Z,101948.94
2023-02-18T14:44:02.135Z,101942.25
2023-02-18T14:46:35.808Z,101935.28
2023-02-18T14:49:16.669Z,101939.94
2023-02-18T14:51:48.092Z,101941.28
2023-02-18T14:54:19.321Z,101934.56
2023-02-18T14:57:13.947Z,101933.50
2023-02-18T14:59:42.859Z,101926.34
2023-02-18T15:02:16.771Z,101944.59
2023-02-18T15:04:43.292Z,101933.31
2023-02-18T15:07:10.469Z,101941.53
2023-02-18T15:09:45.558Z,101936.09
2023-02-18T15:12:17.940Z,101936.31
2023-02-18T15:14:46.947Z,101933.91
2023-02-18T15:17:24.382Z,101942.13
2023-02-18T15:19:57.091Z,101944.25
2023-02-18T15:22:26.181Z,101941.81
2023-02-18T15:24:55.562Z,101942.78
2023-02-18T15:27:24.637Z,101933.78
2023-02-18T15:29:53.435Z,101941.91
2023-02-18T15:32:28.855Z,101936.50
2023-02-18T15:35:03.205Z,101933.78
2023-02-18T15:37:30.725Z,101933.09
2023-02-18T15:39:57.501Z,101934.19
2023-02-18T15:42:33.662Z,101938.00
2023-02-18T15:45:15.061Z,101950.09
2023-02-18T15:47:47.986Z,101942.03
2023-02-18T15:50:18.766Z,101935.78
2023-02-18T15:52:45.526Z,101935.88
2023-02-18T15:55:19.402Z,101942.22
2023-02-18T15:57:46.026Z,101943.31
2023-02-18T16:00:18.898Z,101940.97
2023-02-18T16:03:09.458Z,101939.53
2023-02-18T16:05:39.014Z,101933.63
2023-02-18T16:08:12.284Z,101948.28
2023-02-18T16:11:12.646Z,101935.91
2023-02-18T16:13:47.144Z,101939.97
2023-02-18T16:16:27.319Z,101932.19
2023-02-18T16:18:54.053Z,101941.47
2023-02-18T16:21:20.451Z,101931.78
2023-02-18T16:24:00.281Z,101944.53
2023-02-18T16:26:31.052Z,101938.44
2023-02-18T16:29:05.328Z,101951.16
2023-02-18T16:31:31.872Z,101940.44
2023-02-18T16:33:58.370Z,101937.06
2023-02-18T16:36:25.417Z,101954.31
2023-02-18T16:38:51.960Z,101944.47
2023-02-18T16:41:19.138Z,101945.59
2023-02-18T16:43:45.793Z,101941.28
2023-02-18T16:46:18.014Z,101947.81
2023-02-18T16:48:47.049Z,101959.63
2023-02-18T16:51:15.634Z,101951.63
2023-02-18T16:53:42.791Z,101957.22
2023-02-18T16:56:18.099Z,101955.56
2023-02-18T16:58:45.284Z,101953.03
2023-02-18T17:01:23.189Z,101958.50
2023-02-18T17:03:50.593Z,101947.72
2023-02-18T17:06:17.386Z,101950.50
2023-02-18T17:08:44.066Z,101947.03
2023-02-18T17:11:22.021Z,101948.00
2023-02-18T17:13:50.460Z,101956.19
2023-02-18T17:16:17.540Z,101956.47
2023-02-18T17:18:44.712Z,101960.28
2023-02-18T17:21:16.072Z,101957.84
2023-02-18T17:23:43.299Z,101957.06
2023-02-18T17:26:20.311Z,101959.06
2023-02-18T17:28:47.201Z,101962.72
2023-02-18T17:31:47.148Z,101960.03
2023-02-18T17:34:26.667Z,101946.63
2023-02-18T17:36:53.589Z,101955.56
2023-02-18T17:39:21.202Z,101953.94
2023-02-18T17:41:47.896Z,101962.13
2023-02-18T17:44:19.923Z,101949.72
2023-02-18T17:46:46.700Z,101963.22
2023-02-18T17:49:13.598Z,101962.34
2023-02-18T17:51:40.072Z,101961.41
2023-02-18T17:54:13.566Z,101959.66
2023-02-18T17:56:40.500Z,101969.50
2023-02-18T17:59:07.062Z,101969.69
2023-02-18T18:01:33.947Z,101960.78
2023-02-18T18:04:00.424Z,101954.69
2023-02-18T18:06:27.991Z,101956.44
2023-02-18T18:08:54.598Z,101965.41
2023-02-18T18:11:24.547Z,101968.09
2023-02-18T18:13:52.936Z,101977.16
2023-02-18T18:16:20.390Z,101983.59
2023-02-18T18:18:47.127Z,101977.66
2023-02-18T18:21:24.982Z,101983.28
2023-02-18T18:23:51.588Z,101979.88
2023-02-18T18:26:18.074Z,101979.19
2023-02-18T18:28:44.633Z,101985.69
2023-02-18T18:31:16.363Z,101980.38
2023-02-18T18:33:43.378Z,101975.16
2023-02-18T18:36:10.238Z,101978.00
2023-02-18T18:38:37.019Z,101984.50
2023-02-18T18:41:03.612Z,101978.50
2023-02-18T18:43:33.251Z,101978.59
2023-02-18T18:46:00.504Z,101981.28
2023-02-18T18:48:27.296Z,101979.63
2023-02-18T18:50:54.035Z,101974.25
2023-02-18T18:53:25.144Z,101966.16
2023-02-18T18:55:54.767Z,101971.63
2023-02-18T18:58:24.178Z,101959.09
2023-02-18T19:00:54.372Z,101959.97
2023-02-18T19:03:22.565Z,101952.81
2023-02-18T19:05:50.323Z,101960.06
2023-02-18T19:08:19.983Z,101963.69
2023-02-18T19:10:50.273Z,101959.25
2023-02-18T19:13:22.786Z,101965.63
2023-02-18T19:15:53.202Z,101964.81
2023-02-18T19:18:21.327Z,101954.03
2023-02-18T19:20:48.429Z,101945.78
2023-02-18T19:23:14.903Z,101950.38
2023-02-18T19:25:41.740Z,101951.34
2023-02-18T19:28:09.388Z,101950.56
2023-02-18T19:30:37.274Z,101955.94
2023-02-18T19:33:05.684Z,101946.22
2023-02-18T19:35:32.938Z,101949.75
2023-02-18T19:38:00.154Z,101942.72
2023-02-18T19:40:30.199Z,101945.25
2023-02-18T19:42:57.368Z,101939.75
2023-02-18T19:45:24.412Z,101934.47
2023-02-18T19:47:58.679Z,101938.88
2023-02-18T19:50:27.398Z,101942.47
2023-02-18T19:52:55.309Z,101941.66
2023-02-18T19:55:22.702Z,101926.53
2023-02-18T19:57:50.358Z,101929.16
2023-02-18T20:00:18.615Z,101917.41
2023-02-18T20:02:45.727Z,101924.66
2023-02-18T20:05:13.567Z,101911.22
2023-02-18T20:07:45.989Z,101913.06
2023-02-18T20:10:15.225Z,101909.50
2023-02-18T20:12:41.790Z,101905.91
2023-02-18T20:15:08.644Z,101910.47
2023-02-18T20:17:35.230Z,101898.78
2023-02-18T20:20:01.818Z,101894.44
2023-02-18T20:22:28.463Z,101895.41
2023-02-18T20:24:54.894Z,101887.41
2023-02-18T20:27:21.431Z,101882.88
2023-02-18T20:29:48.003Z,101895.56
2023-02-18T20:32:15.509Z,101889.28
2023-02-18T20:34:43.549Z,101896.50
2023-02-18T20:37:09.978Z,101888.59
2023-02-18T20:39:36.955Z,101888.59
2023-02-18T20:42:15.535Z,101892.16
2023-02-18T20:44:43.175Z,101882.25
2023-02-18T20:47:09.673Z,101879.66
2023-02-18T20:49:36.187Z,101877.81
2023-02-18T20:52:02.705Z,101883.19
2023-02-18T20:54:29.423Z,101887.75
2023-02-18T20:56:55.921Z,101885.09
2023-02-18T20:59:22.504Z,101886.84
2023-02-18T21:01:49.598Z,101885.97
2023-02-18T21:04:18.626Z,101885.03
2023-02-18T21:06:45.865Z,101883.19
2023-02-18T21:09:14.245Z,101868.94
2023-02-18T21:11:41.439Z,101862.59
2023-02-18T21:14:07.926Z,101863.63
2023-02-18T21:16:38.664Z,101849.31
2023-02-18T21:19:07.215Z,101856.44
2023-02-18T21:21:34.176Z,101859.13
2023-02-18T21:24:00.624Z,101853.72
2023-02-18T21:26:28.250Z,101856.44
2023-02-18T21:28:57.657Z,101849.22
2023-02-18T21:31:25.676Z,101839.38
2023-02-18T21:33:52.512Z,101852.75
2023-02-18T21:36:19.630Z,101850.06
2023-02-18T21:38:54.715Z,101833.91
2023-02-18T21:41:21.682Z,101816.88
2023-02-18T21:43:48.796Z,101826.78
2023-02-18T21:46:36.262Z,101815.91
2023-02-18T21:49:10.195Z,101812.34
2023-02-18T21:51:57.371Z,101811.50
2023-02-18T21:54:29.325Z,101824.00
2023-02-18T21:56:57.322Z,101829.47
2023-02-18T21:59:26.822Z,101820.50
2023-02-18T22:01:54.066Z,101832.97
2023-02-18T22:04:21.234Z,101822.28
2023-02-18T22:06:47.806Z,101829.47
2023-02-18T22:09:14.933Z,101837.47
2023-02-18T22:11:42.757Z,101828.59
2023-02-18T22:14:11.000Z,101836.78
2023-02-18T22:16:38.218Z,101839.47
2023-02-18T22:19:05.694Z,101834.16
2023-02-18T22:21:32.476Z,101827.03
2023-02-18T22:23:58.886Z,101827.03
2023-02-18T22:26:25.688Z,101824.19
2023-02-18T22:28:57.449Z,101824.25
2023-02-18T22:31:26.354Z,101822.50
2023-02-18T22:33:53.519Z,101826.06
2023-02-18T22:36:22.202Z,101825.16
2023-02-18T22:38:49.761Z,101824.25
2023-02-18T22:41:18.892Z,101816.19
2023-02-18T22:43:45.872Z,101818.97
2023-02-18T22:46:17.412Z,101821.66
2023-02-18T22:48:44.600Z,101807.22
2023-02-18T22:51:15.632Z,101818.09
2023-02-18T22:53:43.377Z,101810.97
2023-02-18T22:56:12.825Z,101816.34
2023-02-18T22:58:39.784Z,101822.59
2023-02-18T23:01:07.576Z,101829.75
2023-02-18T23:03:35.245Z,101823.47
2023-02-18T23:06:04.636Z,101823.47
2023-02-18T23:08:32.670Z,101821.66
2023-02-18T23:11:10.812Z,101821.75
2023-02-18T23:13:37.896Z,101818.97
2023-02-18T23:16:07.723Z,101821.75
2023-02-18T23:18:35.485Z,101817.19
2023-02-18T23:21:17.868Z,101817.28
2023-02-18T23:23:45.872Z,101810.19
2023-02-18T23:26:13.604Z,101816.44
2023-02-18T23:28:49.666Z,101813.66
2023-02-18T23:31:19.277Z,101822.69
2023-02-18T23:33:49.369Z,101810.19
2023-02-18T23:36:18.669Z,101812.88
2023-02-18T23:38:52.805Z,101806.69
2023-02-18T23:41:20.239Z,101812.16
2023-02-18T23:43:47.530Z,101811.19
2023-02-18T23:46:18.004Z,101807.75
2023-02-18T23:48:44.639Z,101811.38
2023-02-18T23:51:14.376Z,101816.75
2023-02-18T23:53:41.228Z,101814.16
2023-02-18T23:56:11.989Z,101817.72
2023-02-18T23:58:39.043Z,101808.84
